Springville, California
Current Conditions -  °F | °C
As of 11:55 PM on Tuesday 25 Nov 2014 (Local Time) from KPTV Reporting Station
Clear Clear  
Wind Chill: 41°   Ceiling: Unl
Heat Index: 45°   Visibility: 7mi
Dew Point: 39°   Wind: 7mph
Humidity: 81%   Direction: 100°E
Pressure: 30.38"   Gusts: NA
Location:  36.13°N, 118.82°W
Report Text: KPTV 260755Z AUTO 10006KT 7SM CLR 07/04 A3038 RMK AO1
Loading
Personal Weather Stations






























Interactive Weather Map New forecast layout! Learn more

10-Day Weather Forecast

Advertisements
Track Severe Weather on mobile